ADDS METAR Data INFO
IDs: Format: Raw Decoded Include TAF

Data at: 0712 UTC 19 Oct 2017

KPTB 190655Z AUTO 00000KT 10SM CLR A3031 RMK AO2
KPTB 190635Z AUTO 00000KT 10SM CLR A3032 RMK AO2
KPTB 190615Z AUTO 00000KT 10SM CLR A3032 RMK AO2
KPTB 190555Z AUTO 00000KT 10SM CLR A3032 RMK AO2
KPTB 190535Z AUTO 00000KT 10SM CLR A3033 RMK AO2
KPTB 190515Z AUTO 00000KT 10SM CLR A3033 RMK AO2
KPTB 190455Z AUTO 00000KT 10SM CLR A3033 RMK AO2
KPTB 190435Z AUTO 00000KT 10SM CLR A3033 RMK AO2
KPTB 190415Z AUTO 00000KT 10SM CLR A3034 RMK AO2
KPTB 190355Z AUTO 00000KT 10SM CLR A3034 RMK AO2
KPTB 190335Z AUTO 00000KT 10SM CLR A3034 RMK AO2
KPTB 190315Z AUTO 00000KT 10SM CLR A3034 RMK AO2
KPTB 190255Z AUTO 00000KT 10SM CLR A3034 RMK AO2
KPTB 190235Z AUTO 00000KT 10SM CLR A3033 RMK AO2
KPTB 190215Z AUTO 00000KT 10SM CLR A3034 RMK AO2
KPTB 190155Z AUTO 00000KT 10SM CLR A3034 RMK AO2
KPTB 190135Z AUTO 00000KT 10SM CLR A3034 RMK AO2
KPTB 190115Z AUTO 00000KT 10SM CLR A3034 RMK AO2
KPTB 190055Z AUTO 00000KT 10SM CLR A3033 RMK AO2
KPTB 190035Z AUTO 00000KT 10SM CLR A3034 RMK AO2
KPTB 190015Z AUTO 00000KT 10SM CLR A3034 RMK AO2
KPTB 182355Z AUTO 00000KT 10SM CLR A3034 RMK AO2
KPTB 182335Z AUTO 00000KT 10SM CLR A3033 RMK AO2
KPTB 182315Z AUTO 00000KT 10SM CLR 09/08 A3033 RMK AO2 T00850080
KPTB 182255Z AUTO 24003KT 10SM CLR 10/08 A3033 RMK AO2 T00990081
KPTB 182235Z AUTO 00000KT 10SM CLR 12/08 A3033 RMK AO2 T01160084
KPTB 182215Z AUTO 00000KT 10SM CLR 14/08 A3032 RMK AO2 T01370083
KPTB 182155Z AUTO 00000KT 10SM CLR 16/08 A3032 RMK AO2 T01590081
KPTB 182135Z AUTO 00000KT 10SM CLR 19/03 A3032 RMK AO2 T01860025
KPTB 182115Z AUTO 00000KT 10SM CLR 19/01 A3032 RMK AO2 T01910007
KPTB 182055Z AUTO 00000KT 10SM CLR 20/00 A3033 RMK AO2 T01960000
KPTB 182035Z AUTO 00000KT 10SM CLR 20/00 A3033 RMK AO2 T01950000
KPTB 182015Z AUTO 15003KT 10SM CLR 20/00 A3034 RMK AO2 T01970004
KPTB 181955Z AUTO 14003KT 10SM CLR 20/00 A3034 RMK AO2 T01980001
KPTB 181935Z AUTO 00000KT 10SM CLR 20/00 A3034 RMK AO2 T01961001
KPTB 181915Z AUTO 08004KT 10SM CLR 20/M01 A3035 RMK AO2 T01971007
KPTB 181855Z AUTO 00000KT 10SM CLR 19/00 A3036 RMK AO2 T01921004
KPTB 181835Z AUTO 10003KT 10SM CLR 19/00 A3036 RMK AO2 T01901005
KPTB 181815Z AUTO 00000KT 10SM CLR 18/00 A3037 RMK AO2 T01841004
KPTB 181755Z AUTO 06005KT 10SM CLR 19/00 A3037 RMK AO2 T01851005 10185 20009
KPTB 181735Z AUTO 10003KT 10SM CLR 18/M01 A3038 RMK AO2 T01811007
KPTB 181715Z AUTO 01004KT 10SM CLR 18/M01 A3039 RMK AO2 T01801012
KPTB 181655Z AUTO 00000KT 10SM CLR 18/M01 A3041 RMK AO2 T01751006
KPTB 181635Z AUTO 13003KT 10SM CLR 17/00 A3042 RMK AO2 T01731005
KPTB 181615Z AUTO 01003KT 10SM CLR 17/00 A3042 RMK AO2 T01690000
KPTB 181555Z AUTO 00000KT 10SM CLR 16/02 A3042 RMK AO2 T01590024
KPTB 181535Z AUTO 05003KT 10SM CLR 16/03 A3043 RMK AO2 T01560030
KPTB 181515Z AUTO 00000KT 10SM CLR 15/03 A3043 RMK AO2 T01530028
KPTB 181455Z AUTO 36003KT 10SM CLR 14/05 A3042 RMK AO2 T01420047
KPTB 181435Z AUTO 00000KT 10SM CLR 14/05 A3042 RMK AO2 T01350054
KPTB 181415Z AUTO 00000KT 10SM CLR 12/06 A3042 RMK AO2 T01220056
KPTB 181355Z AUTO 31003KT 10SM CLR 11/06 A3042 RMK AO2 T01080061
KPTB 181335Z AUTO 00000KT 10SM CLR 09/06 A3042 RMK AO2 T00920061
KPTB 181315Z AUTO 00000KT 10SM CLR 08/06 A3041 RMK AO2 T00790057
KPTB 181255Z AUTO 00000KT 10SM CLR A3042 RMK AO2
KPTB 181235Z AUTO 00000KT 10SM CLR A3041 RMK AO2
KPTB 181215Z AUTO 00000KT 10SM CLR A3040 RMK AO2
KPTB 181155Z AUTO 00000KT 10SM CLR A3039 RMK AO2
KPTB 181135Z AUTO 00000KT 10SM CLR A3038 RMK AO2
KPTB 181115Z AUTO 00000KT 10SM CLR A3038 RMK AO2
KPTB 181055Z AUTO 00000KT 10SM CLR A3037 RMK AO2
KPTB 181035Z AUTO 00000KT 10SM CLR A3037 RMK AO2
KPTB 181015Z AUTO 00000KT 10SM CLR A3037 RMK AO2
KPTB 180955Z AUTO 00000KT 10SM CLR A3037 RMK AO2
KPTB 180935Z AUTO 00000KT 10SM CLR A3037 RMK AO2
KPTB 180915Z AUTO 00000KT 10SM CLR A3037 RMK AO2
KPTB 180855Z AUTO 00000KT 10SM CLR A3036 RMK AO2
KPTB 180835Z AUTO 00000KT 10SM CLR A3034 RMK AO2
KPTB 180815Z AUTO 00000KT 10SM CLR A3034 RMK AO2
KPTB 180755Z AUTO 00000KT 10SM CLR A3034 RMK AO2
KPTB 180735Z AUTO 00000KT 10SM CLR A3034 RMK AO2
KPTB 180715Z AUTO 00000KT 10SM CLR A3035 RMK AO2
KPTB 180655Z AUTO 00000KT 10SM CLR A3035 RMK AO2
KPTB 180635Z AUTO 00000KT 10SM CLR A3035 RMK AO2
KPTB 180615Z AUTO 00000KT 10SM CLR A3034 RMK AO2
KPTB 180555Z AUTO 00000KT 10SM CLR A3035 RMK AO2
KPTB 180535Z AUTO 00000KT 10SM CLR A3035 RMK AO2
KPTB 180515Z AUTO 00000KT 10SM CLR A3035 RMK AO2
KPTB 180455Z AUTO 00000KT 10SM CLR A3035 RMK AO2
KPTB 180435Z AUTO 00000KT 10SM CLR A3035 RMK AO2
KPTB 180415Z AUTO 00000KT 10SM CLR A3035 RMK AO2
KPTB 180355Z AUTO 00000KT 10SM CLR A3036 RMK AO2
KPTB 180335Z AUTO 00000KT 10SM CLR A3036 RMK AO2
KPTB 180315Z AUTO 00000KT 10SM CLR A3036 RMK AO2
KPTB 180255Z AUTO 00000KT 10SM CLR A3036 RMK AO2
KPTB 180235Z AUTO 00000KT 10SM CLR A3036 RMK AO2
KPTB 180215Z AUTO 00000KT 10SM CLR A3036 RMK AO2
KPTB 180155Z AUTO 00000KT 10SM CLR A3035 RMK AO2
KPTB 180135Z AUTO 00000KT 10SM CLR A3035 RMK AO2
KPTB 180115Z AUTO 00000KT 10SM CLR A3034 RMK AO2
KPTB 180055Z AUTO 00000KT 10SM CLR A3034 RMK AO2
KPTB 180035Z AUTO 00000KT 10SM CLR A3034 RMK AO2
KPTB 180015Z AUTO 00000KT 10SM CLR 05/05 A3033 RMK AO2 T00470047
KPTB 172355Z AUTO 00000KT 10SM CLR 06/06 A3033 RMK AO2 T00550055 10166 20055
KPTB 172335Z AUTO 00000KT 10SM CLR 06/06 A3033 RMK AO2 T00620062
KPTB 172315Z AUTO 00000KT 10SM CLR 07/07 A3032 RMK AO2 T00650065
KPTB 172255Z AUTO 00000KT 10SM CLR 08/06 A3031 RMK AO2 T00790059
KPTB 172235Z AUTO 00000KT 10SM CLR 10/06 A3031 RMK AO2 T00960062
KPTB 172215Z AUTO 00000KT 10SM CLR 12/05 A3030 RMK AO2 T01220052
KPTB 172155Z AUTO 02004KT 10SM CLR 16/M02 A3030 RMK AO2 T01551017
KPTB 172135Z AUTO 36003KT 10SM CLR 16/M02 A3030 RMK AO2 T01571021
KPTB 172115Z AUTO 05003KT 10SM CLR 16/M02 A3030 RMK AO2 T01601019
KPTB 172055Z AUTO 03005KT 10SM CLR 16/M02 A3031 RMK AO2 T01641019
KPTB 172035Z AUTO 05005KT 10SM CLR 16/M02 A3031 RMK AO2 T01641024
KPTB 172015Z AUTO 02004KT 10SM CLR 16/M02 A3031 RMK AO2 T01621022
KPTB 171955Z AUTO 36008KT 10SM CLR 17/M02 A3031 RMK AO2 T01661021
KPTB 171935Z AUTO 01007KT 10SM CLR 16/M02 A3031 RMK AO2 T01631020
KPTB 171915Z AUTO 36003KT 10SM CLR 16/M03 A3031 RMK AO2 T01581028